createdAt,value
2019-04-10T00:00:37.445Z,98775.33
2019-04-10T00:03:08.326Z,98779.97
2019-04-10T00:05:40.901Z,98779.97
2019-04-10T00:08:12.757Z,98780.53
2019-04-10T00:10:43.773Z,98773.59
2019-04-10T00:13:14.547Z,98777.56
2019-04-10T00:15:45.222Z,98785.34
2019-04-10T00:18:16.031Z,98780.64
2019-04-10T00:20:47.019Z,98778.30
2019-04-10T00:23:17.725Z,98772.13
2019-04-10T00:25:48.808Z,98767.31
2019-04-10T00:28:19.613Z,98769.89
2019-04-10T00:30:51.346Z,98766.52
2019-04-10T00:33:22.877Z,98768.16
2019-04-10T00:35:54.036Z,98769.25
2019-04-10T00:38:24.794Z,98767.08
2019-04-10T00:40:55.551Z,98762.78
2019-04-10T00:43:26.675Z,98767.05
2019-04-10T00:45:57.857Z,98775.82
2019-04-10T00:48:28.745Z,98764.50
2019-04-10T00:50:59.397Z,98772.52
2019-04-10T00:53:30.122Z,98770.34
2019-04-10T00:56:01.884Z,98770.73
2019-04-10T00:58:32.814Z,98766.48
2019-04-10T01:01:03.512Z,98765.11
2019-04-10T01:03:43.696Z,98763.91
2019-04-10T01:06:15.764Z,98757.05
2019-04-10T01:08:48.914Z,98756.32
2019-04-10T01:11:19.718Z,98759.08
2019-04-10T01:13:51.609Z,98751.75
2019-04-10T01:16:23.109Z,98753.45
2019-04-10T01:18:53.979Z,98757.19
2019-04-10T01:21:24.682Z,98764.06
2019-04-10T01:23:55.397Z,98763.96
2019-04-10T01:26:26.078Z,98761.25
2019-04-10T01:28:57.620Z,98762.38
2019-04-10T01:31:28.853Z,98759.47
2019-04-10T01:33:59.598Z,98764.41
2019-04-10T01:36:31.127Z,98761.48
2019-04-10T01:39:02.225Z,98759.08
2019-04-10T01:41:32.924Z,98761.00
2019-04-10T01:44:03.905Z,98757.20
2019-04-10T01:46:36.042Z,98758.09
2019-04-10T01:49:07.203Z,98757.09
2019-04-10T01:51:37.955Z,98765.66
2019-04-10T01:54:09.062Z,98762.48
2019-04-10T01:56:39.796Z,98765.66
2019-04-10T01:59:11.775Z,98768.17
2019-04-10T02:02:03.076Z,98763.05
2019-04-10T02:04:35.286Z,98763.27
2019-04-10T02:07:06.200Z,98768.63
2019-04-10T02:09:40.406Z,98762.02
2019-04-10T02:12:11.121Z,98757.69
2019-04-10T02:14:42.564Z,98759.08
2019-04-10T02:17:13.257Z,98762.94
2019-04-10T02:19:43.887Z,98768.46
2019-04-10T02:22:16.249Z,98761.91
2019-04-10T02:24:47.261Z,98761.00
2019-04-10T02:27:18.326Z,98754.91
2019-04-10T02:29:50.047Z,98758.52
2019-04-10T02:32:21.233Z,98766.52
2019-04-10T02:34:53.179Z,98768.05
2019-04-10T02:37:25.108Z,98761.31
2019-04-10T02:40:00.321Z,98766.03
2019-04-10T02:42:30.185Z,98762.27
2019-04-10T02:45:02.248Z,98760.17
2019-04-10T02:47:34.705Z,98759.86
2019-04-10T02:50:10.408Z,98758.45
2019-04-10T02:52:42.963Z,98766.81
2019-04-10T02:55:14.439Z,98767.27
2019-04-10T02:57:45.904Z,98767.52
2019-04-10T03:00:18.112Z,98766.41
2019-04-10T03:02:50.212Z,98762.67
2019-04-10T03:05:23.709Z,98764.13
2019-04-10T03:07:55.736Z,98766.04
2019-04-10T03:10:38.287Z,98761.09
2019-04-10T03:13:00.568Z,98764.47
2019-04-10T03:15:31.691Z,98762.38
2019-04-10T03:18:02.480Z,98770.59
2019-04-10T03:20:34.183Z,98768.27
2019-04-10T03:23:05.300Z,98766.79
2019-04-10T03:25:37.098Z,98771.31
2019-04-10T03:28:09.017Z,98766.37
2019-04-10T03:30:41.518Z,98770.51
2019-04-10T03:33:21.576Z,98769.55
2019-04-10T03:35:51.438Z,98770.51
2019-04-10T03:38:22.337Z,98778.69
2019-04-10T03:40:53.456Z,98779.27
2019-04-10T03:43:25.858Z,98777.63
2019-04-10T03:45:57.118Z,98776.80
2019-04-10T03:48:27.793Z,98769.19
2019-04-10T03:50:58.734Z,98766.59
2019-04-10T03:53:29.920Z,98772.79
2019-04-10T03:56:01.166Z,98767.94
2019-04-10T03:58:31.968Z,98765.00
2019-04-10T04:01:02.837Z,98759.23
2019-04-10T04:03:33.648Z,98760.88
2019-04-10T04:06:04.430Z,98759.22
2019-04-10T04:08:35.359Z,98756.27
2019-04-10T04:11:07.171Z,98751.63
2019-04-10T04:13:38.007Z,98759.98
2019-04-10T04:16:08.893Z,98768.09
2019-04-10T04:18:39.825Z,98767.23
2019-04-10T04:21:10.534Z,98767.38
2019-04-10T04:23:41.320Z,98778.20
2019-04-10T04:26:14.835Z,98780.67
2019-04-10T04:28:45.584Z,98789.77
2019-04-10T04:31:16.259Z,98796.03
2019-04-10T04:33:47.233Z,98795.27
2019-04-10T04:36:18.277Z,98802.71
2019-04-10T04:38:49.269Z,98804.06
2019-04-10T04:41:20.175Z,98801.45
2019-04-10T04:43:51.493Z,98798.84
2019-04-10T04:46:22.267Z,98797.53
2019-04-10T04:48:54.262Z,98790.74
2019-04-10T04:51:25.981Z,98794.27
2019-04-10T04:53:57.651Z,98796.25
2019-04-10T04:56:28.749Z,98797.73
2019-04-10T04:58:59.833Z,98799.44
2019-04-10T05:01:31.749Z,98801.53
2019-04-10T05:04:04.741Z,98785.89
2019-04-10T05:06:35.811Z,98788.25
2019-04-10T05:09:08.225Z,98783.83
2019-04-10T05:11:41.143Z,98788.42
2019-04-10T05:14:13.193Z,98790.08
2019-04-10T05:16:44.198Z,98792.16
2019-04-10T05:19:17.255Z,98782.98
2019-04-10T05:21:49.849Z,98793.69
2019-04-10T05:24:20.665Z,98792.38
2019-04-10T05:26:51.483Z,98795.08
2019-04-10T05:29:22.152Z,98800.52
2019-04-10T05:31:53.181Z,98800.41
2019-04-10T05:34:24.155Z,98802.46
2019-04-10T05:36:54.807Z,98795.56
2019-04-10T05:39:39.748Z,98793.95
2019-04-10T05:42:02.830Z,98801.22
2019-04-10T05:44:34.047Z,98799.03
2019-04-10T05:47:05.377Z,98796.35
2019-04-10T05:49:37.075Z,98795.23
2019-04-10T05:52:08.283Z,98810.27
2019-04-10T05:54:39.550Z,98805.41
2019-04-10T05:57:10.480Z,98807.64
2019-04-10T05:59:41.290Z,98804.91
2019-04-10T06:02:12.132Z,98800.62
2019-04-10T06:04:43.290Z,98806.08
2019-04-10T06:07:14.114Z,98801.95
2019-04-10T06:09:54.035Z,98799.53
2019-04-10T06:12:18.147Z,98803.95
2019-04-10T06:14:48.989Z,98801.20
2019-04-10T06:17:20.582Z,98796.77
2019-04-10T06:19:51.681Z,98795.66
2019-04-10T06:22:22.895Z,98788.45
2019-04-10T06:24:54.379Z,98790.02
2019-04-10T06:27:26.203Z,98803.42
2019-04-10T06:29:56.922Z,98804.56
2019-04-10T06:32:27.692Z,98802.39
2019-04-10T06:34:59.503Z,98803.23
2019-04-10T06:37:30.480Z,98796.58
2019-04-10T06:40:16.954Z,98803.62
2019-04-10T06:42:47.551Z,98799.83
2019-04-10T06:45:15.887Z,98805.03
2019-04-10T06:47:46.660Z,98809.59
2019-04-10T06:50:17.362Z,98815.72
2019-04-10T06:52:49.044Z,98819.98
2019-04-10T06:55:19.968Z,98825.77
2019-04-10T06:57:55.878Z,98829.61
2019-04-10T07:00:23.257Z,98837.34
2019-04-10T07:02:54.660Z,98837.63
2019-04-10T07:05:36.978Z,98833.12
2019-04-10T07:08:09.163Z,98835.06
2019-04-10T07:10:44.776Z,98830.75
2019-04-10T07:13:07.057Z,98823.41
2019-04-10T07:15:35.816Z,98826.42
2019-04-10T07:18:10.333Z,98823.36
2019-04-10T07:20:40.049Z,98822.71
2019-04-10T07:23:14.117Z,98831.10
2019-04-10T07:25:45.461Z,98818.34
2019-04-10T07:28:15.664Z,98814.23
2019-04-10T07:30:46.370Z,98804.00
2019-04-10T07:33:19.198Z,98800.02
2019-04-10T07:35:50.070Z,98798.68
2019-04-10T07:38:21.350Z,98792.93
2019-04-10T07:40:52.538Z,98793.73
2019-04-10T07:43:27.151Z,98788.09
2019-04-10T07:45:56.925Z,98790.97
2019-04-10T07:48:29.337Z,98786.53
2019-04-10T07:51:00.622Z,98787.39
2019-04-10T07:53:31.384Z,98785.20
2019-04-10T07:56:06.827Z,98788.69
2019-04-10T07:58:35.443Z,98790.38
2019-04-10T08:01:06.564Z,98790.59
2019-04-10T08:03:39.586Z,98789.52
2019-04-10T08:06:11.079Z,98796.98
2019-04-10T08:08:42.648Z,98786.35
2019-04-10T08:11:13.343Z,98795.01
2019-04-10T08:13:44.884Z,98792.43
2019-04-10T08:16:15.574Z,98787.33
2019-04-10T08:18:46.207Z,98782.97
2019-04-10T08:21:17.742Z,98783.77
2019-04-10T08:23:48.601Z,98779.59
2019-04-10T08:26:19.219Z,98782.39
2019-04-10T08:28:49.855Z,98774.77
2019-04-10T08:31:21.212Z,98775.63
2019-04-10T08:33:53.075Z,98787.66
2019-04-10T08:36:23.806Z,98785.19
2019-04-10T08:38:54.979Z,98780.87
2019-04-10T08:41:26.840Z,98785.05
2019-04-10T08:44:02.506Z,98781.77
2019-04-10T08:46:33.707Z,98787.04
2019-04-10T08:49:05.631Z,98780.34
2019-04-10T08:51:36.886Z,98776.23
2019-04-10T08:54:07.941Z,98777.29
2019-04-10T08:56:38.941Z,98771.26
2019-04-10T08:59:09.766Z,98776.73
2019-04-10T09:01:40.355Z,98767.63
2019-04-10T09:04:11.085Z,98771.84
2019-04-10T09:06:41.869Z,98768.04
2019-04-10T09:09:13.159Z,98762.68
2019-04-10T09:11:45.075Z,98762.41
2019-04-10T09:14:17.422Z,98764.94
2019-04-10T09:16:48.963Z,98756.91
2019-04-10T09:19:20.441Z,98758.39
2019-04-10T09:21:52.045Z,98758.08
2019-04-10T09:24:23.775Z,98747.48
2019-04-10T09:26:54.958Z,98749.72
2019-04-10T09:29:25.877Z,98750.73
2019-04-10T09:31:58.118Z,98746.59
2019-04-10T09:34:28.827Z,98746.06
2019-04-10T09:36:59.934Z,98750.70
2019-04-10T09:39:31.793Z,98742.52
2019-04-10T09:42:03.400Z,98751.05
2019-04-10T09:44:34.391Z,98749.66
2019-04-10T09:47:05.555Z,98738.75
2019-04-10T09:49:41.961Z,98748.37
2019-04-10T09:52:12.350Z,98741.36
2019-04-10T09:54:46.728Z,98736.01
2019-04-10T09:57:20.207Z,98736.60
2019-04-10T09:59:51.018Z,98738.48
2019-04-10T10:02:23.418Z,98741.61
2019-04-10T10:04:54.086Z,98736.72
2019-04-10T10:07:24.930Z,98740.05
2019-04-10T10:09:58.180Z,98741.19
2019-04-10T10:12:28.059Z,98743.63
2019-04-10T10:14:58.853Z,98734.41
2019-04-10T10:17:32.878Z,98741.48
2019-04-10T10:20:05.734Z,98741.77
2019-04-10T10:22:39.049Z,98746.34
2019-04-10T10:25:13.147Z,98750.11
2019-04-10T10:27:52.861Z,98749.86
2019-04-10T10:30:23.620Z,98745.69
2019-04-10T10:32:54.701Z,98748.69
2019-04-10T10:35:27.733Z,98747.91
2019-04-10T10:37:58.929Z,98752.55
2019-04-10T10:40:33.860Z,98749.58
2019-04-10T10:43:04.637Z,98742.48
2019-04-10T10:45:36.575Z,98740.48
2019-04-10T10:48:08.635Z,98735.31
2019-04-10T10:50:39.863Z,98739.05
2019-04-10T10:53:10.692Z,98738.50
2019-04-10T10:55:42.064Z,98737.70
2019-04-10T10:58:13.317Z,98744.15
2019-04-10T11:00:44.525Z,98740.92
2019-04-10T11:03:16.160Z,98739.83
2019-04-10T11:05:46.914Z,98741.46
2019-04-10T11:08:17.738Z,98742.02
2019-04-10T11:13:22.148Z,98736.05
2019-04-10T11:15:53.336Z,98734.92
2019-04-10T11:18:24.762Z,98734.88
2019-04-10T11:21:02.762Z,98728.83
2019-04-10T11:23:30.561Z,98726.61
2019-04-10T11:26:02.188Z,98730.84
2019-04-10T11:28:33.840Z,98729.16
2019-04-10T11:31:05.226Z,98718.54
2019-04-10T11:33:37.316Z,98717.15
2019-04-10T11:36:09.930Z,98717.15
2019-04-10T11:38:42.892Z,98721.14
2019-04-10T11:41:14.861Z,98721.14
2019-04-10T11:43:46.642Z,98716.33
2019-04-10T11:46:17.793Z,98717.36
2019-04-10T11:48:49.314Z,98710.95
2019-04-10T11:51:21.025Z,98712.95
2019-04-10T11:53:55.985Z,98712.95
2019-04-10T11:56:26.096Z,98711.42
2019-04-10T11:58:59.866Z,98711.41
2019-04-10T12:01:34.229Z,98712.47
2019-04-10T12:04:08.619Z,98698.09
2019-04-10T12:06:39.753Z,98699.19
2019-04-10T12:09:51.252Z,98704.30
2019-04-10T12:11:44.728Z,98699.44
2019-04-10T12:14:15.628Z,98694.30
2019-04-10T12:16:47.342Z,98693.47
2019-04-10T12:19:19.321Z,98684.45
2019-04-10T12:21:50.385Z,98687.69
2019-04-10T12:24:21.798Z,98683.00
2019-04-10T12:26:52.577Z,98683.75
2019-04-10T12:29:23.215Z,98682.41
2019-04-10T12:31:54.570Z,98681.39
2019-04-10T12:34:26.434Z,98691.44
2019-04-10T12:36:57.183Z,98684.50
2019-04-10T12:39:28.052Z,98671.62
2019-04-10T12:41:59.635Z,98673.48
2019-04-10T12:44:30.319Z,98678.22
2019-04-10T12:47:01.644Z,98673.64
2019-04-10T12:49:32.541Z,98682.05
2019-04-10T12:52:03.195Z,98680.67
2019-04-10T12:54:33.949Z,98679.30
2019-04-10T12:57:04.670Z,98685.02
2019-04-10T12:59:35.510Z,98681.20
2019-04-10T13:02:06.090Z,98678.77
2019-04-10T13:04:36.675Z,98675.09
2019-04-10T13:07:07.512Z,98678.97
2019-04-10T13:09:38.235Z,98680.31
2019-04-10T13:12:09.103Z,98679.85
2019-04-10T13:14:39.938Z,98675.74
2019-04-10T13:17:12.277Z,98682.56
2019-04-10T13:19:43.141Z,98678.91
2019-04-10T13:22:13.942Z,98681.75
2019-04-10T13:24:45.827Z,98673.59
2019-04-10T13:27:16.809Z,98678.03
2019-04-10T13:29:47.394Z,98669.55
2019-04-10T13:32:18.307Z,98672.83
2019-04-10T13:34:49.433Z,98674.73
2019-04-10T13:37:20.112Z,98673.61
2019-04-10T13:39:52.038Z,98676.57
2019-04-10T13:42:23.154Z,98668.94
2019-04-10T13:44:55.752Z,98670.88
2019-04-10T13:47:30.459Z,98666.44
2019-04-10T13:50:02.386Z,98670.54
2019-04-10T13:52:38.582Z,98668.51
2019-04-10T13:55:11.694Z,98661.91
2019-04-10T13:57:44.703Z,98661.59
2019-04-10T14:00:19.604Z,98663.58
2019-04-10T14:02:52.077Z,98661.27
2019-04-10T14:05:24.021Z,98670.06
2019-04-10T14:07:55.115Z,98679.19
2019-04-10T14:10:28.363Z,98691.70
2019-04-10T14:12:59.796Z,98711.48
2019-04-10T14:15:33.799Z,98728.02
2019-04-10T14:18:06.315Z,98708.27
2019-04-10T14:20:37.590Z,98699.76
2019-04-10T14:23:10.478Z,98687.68
2019-04-10T14:25:42.792Z,98709.45
2019-04-10T14:28:14.300Z,98687.82
2019-04-10T14:30:47.304Z,98696.41
2019-04-10T14:33:19.115Z,98690.97
2019-04-10T14:35:50.234Z,98699.28
2019-04-10T14:38:21.202Z,98702.10
2019-04-10T14:40:53.487Z,98700.37
2019-04-10T14:43:24.972Z,98700.23
2019-04-10T14:45:55.969Z,98708.30
2019-04-10T14:48:27.923Z,98705.47
2019-04-10T14:50:59.817Z,98701.03
2019-04-10T14:53:31.181Z,98706.94
2019-04-10T14:56:02.191Z,98710.93
2019-04-10T14:58:34.318Z,98722.89
2019-04-10T15:01:08.419Z,98735.91
2019-04-10T15:03:38.758Z,98751.53
2019-04-10T15:06:10.363Z,98752.57
2019-04-10T15:08:41.848Z,98756.25
2019-04-10T15:11:12.644Z,98752.32
2019-04-10T15:13:43.229Z,98752.84
2019-04-10T15:16:14.773Z,98743.77
2019-04-10T15:18:45.851Z,98749.79
2019-04-10T15:21:16.694Z,98763.63
2019-04-10T15:23:47.437Z,98776.58
2019-04-10T15:26:18.097Z,98774.59
2019-04-10T15:28:49.870Z,98769.77
2019-04-10T15:31:21.514Z,98772.43
2019-04-10T15:33:52.463Z,98772.98
2019-04-10T15:36:25.022Z,98769.05
2019-04-10T15:38:55.900Z,98772.11
2019-04-10T15:41:27.389Z,98769.95
2019-04-10T15:43:59.415Z,98775.13
2019-04-10T15:46:30.198Z,98770.77
2019-04-10T15:49:02.795Z,98768.48
2019-04-10T15:51:33.584Z,98764.11
2019-04-10T15:54:05.497Z,98766.27
2019-04-10T15:56:36.280Z,98771.02
2019-04-10T15:59:08.039Z,98776.05
2019-04-10T16:01:41.353Z,98789.87
2019-04-10T16:04:12.293Z,98794.43
2019-04-10T16:06:43.038Z,98809.14
2019-04-10T16:09:16.863Z,98815.09
2019-04-10T16:11:54.255Z,98822.77
2019-04-10T16:14:27.638Z,98828.70
2019-04-10T16:17:02.143Z,98827.69
2019-04-10T16:19:51.322Z,98828.56
2019-04-10T16:22:27.638Z,98832.14
2019-04-10T16:25:03.239Z,98844.21
2019-04-10T16:27:35.671Z,98841.00
2019-04-10T16:30:12.312Z,98839.23
2019-04-10T16:32:43.941Z,98845.09
2019-04-10T16:35:15.727Z,98836.73
2019-04-10T16:37:47.478Z,98837.89
2019-04-10T16:40:18.818Z,98837.62
2019-04-10T16:42:50.801Z,98833.08
2019-04-10T16:45:24.554Z,98831.30
2019-04-10T16:48:01.012Z,98831.81
2019-04-10T16:50:31.712Z,98832.33
2019-04-10T16:53:05.558Z,98833.48
2019-04-10T16:55:36.678Z,98833.80
2019-04-10T16:58:10.235Z,98825.81
2019-04-10T17:00:41.794Z,98829.42
2019-04-10T17:03:15.940Z,98825.77
2019-04-10T17:05:47.914Z,98820.20
2019-04-10T17:08:19.630Z,98822.67
2019-04-10T17:10:52.549Z,98824.84
2019-04-10T17:13:24.560Z,98828.27
2019-04-10T17:15:55.677Z,98832.12
2019-04-10T17:18:27.465Z,98822.89
2019-04-10T17:20:58.364Z,98823.62
2019-04-10T17:23:30.218Z,98823.86
2019-04-10T17:26:02.627Z,98821.22
2019-04-10T17:28:34.774Z,98834.59
2019-04-10T17:31:09.142Z,98831.45
2019-04-10T17:33:41.865Z,98835.99
2019-04-10T17:36:14.772Z,98843.16
2019-04-10T17:38:49.033Z,98837.88
2019-04-10T17:41:26.044Z,98834.64
2019-04-10T17:43:58.269Z,98829.88
2019-04-10T17:46:33.423Z,98839.87
2019-04-10T17:49:08.808Z,98832.32
2019-04-10T17:51:39.960Z,98834.78
2019-04-10T17:54:12.309Z,98839.02
2019-04-10T17:56:46.322Z,98834.33
2019-04-10T17:59:18.363Z,98839.07
2019-04-10T18:01:57.132Z,98835.77
2019-04-10T18:04:33.784Z,98838.23
2019-04-10T18:07:05.981Z,98845.17
2019-04-10T18:09:36.883Z,98844.88
2019-04-10T18:12:12.222Z,98847.52
2019-04-10T18:14:44.129Z,98855.63
2019-04-10T18:17:15.032Z,98857.11
2019-04-10T18:19:46.167Z,98858.77
2019-04-10T18:22:17.165Z,98853.88
2019-04-10T18:24:48.248Z,98859.27
2019-04-10T18:27:18.969Z,98870.45
2019-04-10T18:29:49.776Z,98867.03
2019-04-10T18:32:21.362Z,98867.33
2019-04-10T18:34:52.153Z,98881.38
2019-04-10T18:37:25.148Z,98885.12
2019-04-10T18:39:55.279Z,98875.63
2019-04-10T18:42:26.707Z,98872.87
2019-04-10T18:44:57.624Z,98880.01
2019-04-10T18:47:31.862Z,98879.59
2019-04-10T18:50:01.251Z,98884.13
2019-04-10T18:52:35.034Z,98881.06
2019-04-10T18:55:06.142Z,98879.47
2019-04-10T18:57:36.860Z,98873.84
2019-04-10T19:00:27.511Z,98873.23
2019-04-10T19:03:17.101Z,98872.98
2019-04-10T19:05:52.495Z,98868.30
2019-04-10T19:08:24.000Z,98875.51
2019-04-10T19:11:08.119Z,98869.05
2019-04-10T19:13:28.579Z,98872.30
2019-04-10T19:15:59.490Z,98878.41
2019-04-10T19:18:30.104Z,98883.91
2019-04-10T19:21:01.332Z,98879.86
2019-04-10T19:23:33.100Z,98881.50
2019-04-10T19:26:05.148Z,98881.50
2019-04-10T19:28:38.469Z,98887.70
2019-04-10T19:31:19.673Z,98877.12
2019-04-10T19:33:49.345Z,98878.89
2019-04-10T19:36:20.228Z,98885.38
2019-04-10T19:38:51.737Z,98886.35
2019-04-10T19:41:29.607Z,98889.73
2019-04-10T19:43:55.114Z,98892.06
2019-04-10T19:46:25.958Z,98896.59
2019-04-10T19:48:57.676Z,98893.00
2019-04-10T19:51:28.559Z,98890.22
2019-04-10T19:54:00.672Z,98893.11
2019-04-10T19:56:34.920Z,98890.64
2019-04-10T19:59:06.307Z,98903.22
2019-04-10T20:01:38.021Z,98912.59
2019-04-10T20:04:08.879Z,98911.94
2019-04-10T20:06:40.604Z,98916.55
2019-04-10T20:09:12.479Z,98916.05
2019-04-10T20:11:48.639Z,98929.89
2019-04-10T20:14:17.983Z,98930.83
2019-04-10T20:16:49.373Z,98928.77
2019-04-10T20:19:20.335Z,98930.61
2019-04-10T20:21:51.058Z,98939.14
2019-04-10T20:24:22.822Z,98930.82
2019-04-10T20:26:53.887Z,98930.20
2019-04-10T20:29:24.602Z,98927.33
2019-04-10T20:31:57.438Z,98924.05
2019-04-10T20:34:28.234Z,98926.73
2019-04-10T20:37:02.644Z,98925.98
2019-04-10T20:39:31.522Z,98922.92
2019-04-10T20:42:02.665Z,98918.69
2019-04-10T20:44:34.508Z,98924.08
2019-04-10T20:47:05.291Z,98929.59
2019-04-10T20:49:36.433Z,98923.52
2019-04-10T20:52:08.363Z,98917.86
2019-04-10T20:54:39.202Z,98920.96
2019-04-10T20:57:10.854Z,98925.83
2019-04-10T20:59:42.536Z,98925.92
2019-04-10T21:02:13.795Z,98928.42
2019-04-10T21:04:54.720Z,98927.80
2019-04-10T21:07:17.279Z,98932.23
2019-04-10T21:09:48.217Z,98933.87
2019-04-10T21:12:21.015Z,98937.59
2019-04-10T21:14:51.149Z,98941.11
2019-04-10T21:17:22.661Z,98940.28
2019-04-10T21:19:53.774Z,98952.24
2019-04-10T21:22:24.507Z,98961.30
2019-04-10T21:24:56.200Z,98965.86
2019-04-10T21:27:27.966Z,98957.20
2019-04-10T21:30:15.812Z,98956.56
2019-04-10T21:33:05.758Z,98953.05
2019-04-10T21:35:41.612Z,98952.13
2019-04-10T21:38:13.139Z,98943.58
2019-04-10T21:40:43.951Z,98946.14
2019-04-10T21:43:14.853Z,98944.61
2019-04-10T21:45:45.621Z,98947.89
2019-04-10T21:48:16.764Z,98950.79
2019-04-10T21:50:47.561Z,98960.50
2019-04-10T21:53:18.296Z,98957.08
2019-04-10T21:55:49.045Z,98959.46
2019-04-10T21:58:19.938Z,98966.88
2019-04-10T22:01:01.485Z,98970.58
2019-04-10T22:03:33.682Z,98968.11
2019-04-10T22:06:16.304Z,98966.88
2019-04-10T22:09:04.123Z,98955.53
2019-04-10T22:11:34.748Z,98963.06
2019-04-10T22:14:05.499Z,98964.17
2019-04-10T22:16:36.268Z,98976.86
2019-04-10T22:19:07.108Z,98972.50
2019-04-10T22:21:37.818Z,98972.20
2019-04-10T22:24:09.466Z,98972.20
2019-04-10T22:26:40.343Z,98972.52
2019-04-10T22:29:12.077Z,98975.61
2019-04-10T22:31:43.790Z,98973.01
2019-04-10T22:34:14.681Z,98980.53
2019-04-10T22:36:45.425Z,98971.37
2019-04-10T22:39:16.855Z,98976.30
2019-04-10T22:41:48.352Z,98977.41
2019-04-10T22:44:19.713Z,98974.73
2019-04-10T22:46:50.602Z,98968.77
2019-04-10T22:49:22.208Z,98970.21
2019-04-10T22:51:53.837Z,98977.91
2019-04-10T22:54:24.756Z,98976.44
2019-04-10T22:56:56.559Z,98977.91
2019-04-10T22:59:28.470Z,98975.64
2019-04-10T23:02:06.684Z,98978.19
2019-04-10T23:04:32.798Z,98970.49
2019-04-10T23:07:03.967Z,98974.20
2019-04-10T23:09:34.688Z,98970.29
2019-04-10T23:12:05.778Z,98978.31
2019-04-10T23:14:36.633Z,98975.11
2019-04-10T23:17:08.460Z,98973.98
2019-04-10T23:19:40.354Z,98976.34
2019-04-10T23:22:11.814Z,98978.09
2019-04-10T23:24:43.476Z,98977.05
2019-04-10T23:27:14.452Z,98972.31
2019-04-10T23:29:46.507Z,98974.78
2019-04-10T23:32:17.333Z,98975.81
2019-04-10T23:34:49.207Z,98978.92
2019-04-10T23:37:20.518Z,98976.05
2019-04-10T23:39:52.428Z,98969.94
2019-04-10T23:42:23.433Z,98974.42
2019-04-10T23:44:54.060Z,98976.30
2019-04-10T23:47:24.800Z,98969.48
2019-04-10T23:49:55.620Z,98971.95
2019-04-10T23:52:27.545Z,98974.52
2019-04-10T23:54:58.346Z,98971.55
2019-04-10T23:57:29.452Z,98968.97
